Pflugerville, Texas
Current Conditions -  °F | °C
As of 7:55 AM on Saturday 25 Oct 2014 (Local Time) from KEDC Reporting Station
Clear Clear  
Wind Chill: 59°   Ceiling: Unl
Heat Index: 59°   Visibility: 7mi
Dew Point: 57°   Wind: 3mph
Humidity: 94%   Direction: 180°S
Pressure: 30.16"   Gusts: NA
Location:  30.44°N, 97.62°W
Report Text: KEDC 251255Z AUTO 18003KT 7SM CLR 15/14 A3016 RMK AO2
Loading
Personal Weather Stations






























Interactive Weather Map
Tropical Storm Tracking
New forecast layout! Learn more

10-Day Weather Forecast

Advertisements
Track Severe Weather on mobile